Terminal Aerodrome Forecast
Issued by NWS

Home | Current Version | Previous Version | Text Only | Print | Product List | Glossary On
Versions: 1 2 3 4 5 6 7 8 9 10 11 12 13 14 15
676
FTUS42 TJSJ 221743
TAFJBQ
TAF
TJBQ 221743Z 2218/2318 07015KT P6SM -SHRA VCTS SCT022CB SCT040
      BKN090
     FM222300 10007KT P6SM VCSH SCT030 SCT050
     FM231300 07015KT P6SM FEW035 SCT045
      AMD NOT SKED 2302/2311=

USA.gov is the U.S. government's official web portal to all federal, state and local government web resources and services.